sensor_id;sensor_type;location;lat;lon;timestamp;P1;durP1;ratioP1;P2;durP2;ratioP2
58208;SDS011;44006;52.028;4.696;2023-04-06T00:00:06;22.42;;;13.70;;
58208;SDS011;44006;52.028;4.696;2023-04-06T00:02:33;23.05;;;12.82;;
58208;SDS011;44006;52.028;4.696;2023-04-06T00:04:59;24.30;;;13.00;;
58208;SDS011;44006;52.028;4.696;2023-04-06T00:07:24;22.08;;;13.65;;
58208;SDS011;44006;52.028;4.696;2023-04-06T00:09:50;23.05;;;12.45;;
58208;SDS011;44006;52.028;4.696;2023-04-06T00:12:15;20.23;;;12.43;;
58208;SDS011;44006;52.028;4.696;2023-04-06T00:14:40;19.92;;;12.27;;
58208;SDS011;44006;52.028;4.696;2023-04-06T00:17:06;22.10;;;12.27;;
58208;SDS011;44006;52.028;4.696;2023-04-06T00:19:32;18.75;;;12.10;;
58208;SDS011;44006;52.028;4.696;2023-04-06T00:21:57;23.45;;;12.60;;
58208;SDS011;44006;52.028;4.696;2023-04-06T00:24:23;18.50;;;11.95;;
58208;SDS011;44006;52.028;4.696;2023-04-06T00:26:48;19.65;;;11.02;;
58208;SDS011;44006;52.028;4.696;2023-04-06T00:29:13;19.20;;;11.52;;
58208;SDS011;44006;52.028;4.696;2023-04-06T00:31:38;21.00;;;11.77;;
58208;SDS011;44006;52.028;4.696;2023-04-06T00:34:05;18.92;;;11.13;;
58208;SDS011;44006;52.028;4.696;2023-04-06T00:36:30;18.85;;;11.10;;
58208;SDS011;44006;52.028;4.696;2023-04-06T00:38:56;19.90;;;12.20;;
58208;SDS011;44006;52.028;4.696;2023-04-06T00:41:22;20.75;;;11.27;;
58208;SDS011;44006;52.028;4.696;2023-04-06T00:43:47;19.80;;;11.93;;
58208;SDS011;44006;52.028;4.696;2023-04-06T00:46:12;19.90;;;10.82;;
58208;SDS011;44006;52.028;4.696;2023-04-06T00:48:37;18.83;;;11.20;;
58208;SDS011;44006;52.028;4.696;2023-04-06T00:51:04;16.40;;;10.70;;
58208;SDS011;44006;52.028;4.696;2023-04-06T00:53:29;20.15;;;11.20;;
58208;SDS011;44006;52.028;4.696;2023-04-06T00:55:54;19.90;;;11.18;;
58208;SDS011;44006;52.028;4.696;2023-04-06T00:58:20;18.45;;;11.15;;
58208;SDS011;44006;52.028;4.696;2023-04-06T01:00:45;18.05;;;10.77;;
58208;SDS011;44006;52.028;4.696;2023-04-06T01:03:11;20.40;;;11.80;;
58208;SDS011;44006;52.028;4.696;2023-04-06T01:05:36;21.10;;;12.15;;
58208;SDS011;44006;52.028;4.696;2023-04-06T01:08:05;19.90;;;11.73;;
58208;SDS011;44006;52.028;4.696;2023-04-06T01:10:31;18.55;;;11.27;;
58208;SDS011;44006;52.028;4.696;2023-04-06T01:12:56;20.90;;;11.60;;
58208;SDS011;44006;52.028;4.696;2023-04-06T01:15:21;19.70;;;11.88;;
58208;SDS011;44006;52.028;4.696;2023-04-06T01:17:47;18.40;;;12.02;;
58208;SDS011;44006;52.028;4.696;2023-04-06T01:20:12;20.95;;;11.23;;
58208;SDS011;44006;52.028;4.696;2023-04-06T01:22:39;20.05;;;11.73;;
58208;SDS011;44006;52.028;4.696;2023-04-06T01:25:05;18.35;;;11.50;;
58208;SDS011;44006;52.028;4.696;2023-04-06T01:27:30;18.73;;;12.13;;
58208;SDS011;44006;52.028;4.696;2023-04-06T01:29:57;19.80;;;11.13;;
58208;SDS011;44006;52.028;4.696;2023-04-06T01:32:22;16.23;;;11.10;;
58208;SDS011;44006;52.028;4.696;2023-04-06T01:34:47;18.88;;;11.52;;
58208;SDS011;44006;52.028;4.696;2023-04-06T01:37:13;18.15;;;10.85;;
58208;SDS011;44006;52.028;4.696;2023-04-06T01:39:38;25.60;;;12.35;;
58208;SDS011;44006;52.028;4.696;2023-04-06T01:42:03;18.48;;;12.15;;
58208;SDS011;44006;52.028;4.696;2023-04-06T01:44:28;18.83;;;10.63;;
58208;SDS011;44006;52.028;4.696;2023-04-06T01:46:56;21.08;;;11.30;;
58208;SDS011;44006;52.028;4.696;2023-04-06T01:49:22;19.45;;;11.73;;
58208;SDS011;44006;52.028;4.696;2023-04-06T01:51:47;21.63;;;11.68;;
58208;SDS011;44006;52.028;4.696;2023-04-06T01:54:12;19.85;;;11.68;;
58208;SDS011;44006;52.028;4.696;2023-04-06T01:56:38;18.98;;;12.13;;
58208;SDS011;44006;52.028;4.696;2023-04-06T01:59:03;19.20;;;11.88;;
58208;SDS011;44006;52.028;4.696;2023-04-06T02:01:28;19.30;;;12.32;;
58208;SDS011;44006;52.028;4.696;2023-04-06T02:03:53;18.13;;;12.13;;
58208;SDS011;44006;52.028;4.696;2023-04-06T02:06:19;19.83;;;12.40;;
58208;SDS011;44006;52.028;4.696;2023-04-06T02:08:44;21.48;;;12.68;;
58208;SDS011;44006;52.028;4.696;2023-04-06T02:11:10;20.10;;;11.75;;
58208;SDS011;44006;52.028;4.696;2023-04-06T02:13:35;20.15;;;12.55;;
58208;SDS011;44006;52.028;4.696;2023-04-06T02:16:00;22.17;;;13.75;;
58208;SDS011;44006;52.028;4.696;2023-04-06T02:18:27;18.90;;;11.65;;
58208;SDS011;44006;52.028;4.696;2023-04-06T02:20:53;18.77;;;12.23;;
58208;SDS011;44006;52.028;4.696;2023-04-06T02:23:18;21.83;;;12.80;;
58208;SDS011;44006;52.028;4.696;2023-04-06T02:25:44;22.08;;;12.27;;
58208;SDS011;44006;52.028;4.696;2023-04-06T02:28:09;21.42;;;12.60;;
58208;SDS011;44006;52.028;4.696;2023-04-06T02:30:35;20.70;;;12.57;;
58208;SDS011;44006;52.028;4.696;2023-04-06T02:33:02;21.90;;;13.05;;
58208;SDS011;44006;52.028;4.696;2023-04-06T02:35:30;17.40;;;11.75;;
58208;SDS011;44006;52.028;4.696;2023-04-06T02:37:56;22.88;;;13.35;;
58208;SDS011;44006;52.028;4.696;2023-04-06T02:40:21;19.65;;;12.52;;
58208;SDS011;44006;52.028;4.696;2023-04-06T02:42:46;21.92;;;12.85;;
58208;SDS011;44006;52.028;4.696;2023-04-06T02:45:12;21.13;;;12.40;;
58208;SDS011;44006;52.028;4.696;2023-04-06T02:47:37;25.10;;;13.57;;
58208;SDS011;44006;52.028;4.696;2023-04-06T02:50:02;21.65;;;12.82;;
58208;SDS011;44006;52.028;4.696;2023-04-06T02:52:28;22.55;;;12.98;;
58208;SDS011;44006;52.028;4.696;2023-04-06T02:54:54;18.98;;;12.68;;
58208;SDS011;44006;52.028;4.696;2023-04-06T02:57:19;20.30;;;12.80;;
58208;SDS011;44006;52.028;4.696;2023-04-06T02:59:45;24.00;;;13.13;;
58208;SDS011;44006;52.028;4.696;2023-04-06T03:02:10;23.15;;;12.60;;
58208;SDS011;44006;52.028;4.696;2023-04-06T03:04:35;22.95;;;13.82;;
58208;SDS011;44006;52.028;4.696;2023-04-06T03:07:01;21.33;;;12.57;;
58208;SDS011;44006;52.028;4.696;2023-04-06T03:09:27;23.38;;;13.40;;
58208;SDS011;44006;52.028;4.696;2023-04-06T03:11:52;21.67;;;13.60;;
58208;SDS011;44006;52.028;4.696;2023-04-06T03:14:17;23.45;;;13.45;;
58208;SDS011;44006;52.028;4.696;2023-04-06T03:16:46;22.88;;;13.82;;
58208;SDS011;44006;52.028;4.696;2023-04-06T03:19:18;22.95;;;14.70;;
58208;SDS011;44006;52.028;4.696;2023-04-06T03:21:43;23.27;;;14.48;;
58208;SDS011;44006;52.028;4.696;2023-04-06T03:24:11;22.92;;;14.30;;
58208;SDS011;44006;52.028;4.696;2023-04-06T03:26:38;20.52;;;14.20;;
58208;SDS011;44006;52.028;4.696;2023-04-06T03:29:03;22.33;;;13.48;;
58208;SDS011;44006;52.028;4.696;2023-04-06T03:31:29;24.52;;;14.82;;
58208;SDS011;44006;52.028;4.696;2023-04-06T03:33:54;24.20;;;15.13;;
58208;SDS011;44006;52.028;4.696;2023-04-06T03:36:20;24.27;;;14.10;;
58208;SDS011;44006;52.028;4.696;2023-04-06T03:38:45;24.10;;;14.70;;
58208;SDS011;44006;52.028;4.696;2023-04-06T03:41:10;24.05;;;14.57;;
58208;SDS011;44006;52.028;4.696;2023-04-06T03:43:36;22.67;;;14.38;;
58208;SDS011;44006;52.028;4.696;2023-04-06T03:46:01;22.92;;;14.82;;
58208;SDS011;44006;52.028;4.696;2023-04-06T03:48:26;23.58;;;14.90;;
58208;SDS011;44006;52.028;4.696;2023-04-06T03:50:51;22.52;;;14.60;;
58208;SDS011;44006;52.028;4.696;2023-04-06T03:53:16;22.55;;;15.30;;
58208;SDS011;44006;52.028;4.696;2023-04-06T03:55:42;23.55;;;15.15;;
58208;SDS011;44006;52.028;4.696;2023-04-06T03:58:07;23.27;;;14.48;;
58208;SDS011;44006;52.028;4.696;2023-04-06T04:00:33;25.30;;;15.20;;
58208;SDS011;44006;52.028;4.696;2023-04-06T04:02:59;27.20;;;16.63;;
58208;SDS011;44006;52.028;4.696;2023-04-06T04:05:24;24.50;;;15.63;;
58208;SDS011;44006;52.028;4.696;2023-04-06T04:07:50;26.75;;;15.57;;
58208;SDS011;44006;52.028;4.696;2023-04-06T04:10:16;26.23;;;15.77;;
58208;SDS011;44006;52.028;4.696;2023-04-06T04:12:41;26.98;;;15.60;;
58208;SDS011;44006;52.028;4.696;2023-04-06T04:15:06;24.88;;;14.95;;
58208;SDS011;44006;52.028;4.696;2023-04-06T04:17:32;26.23;;;16.17;;
58208;SDS011;44006;52.028;4.696;2023-04-06T04:19:57;25.63;;;16.27;;
58208;SDS011;44006;52.028;4.696;2023-04-06T04:22:22;23.42;;;15.45;;
58208;SDS011;44006;52.028;4.696;2023-04-06T04:24:47;26.55;;;16.30;;
58208;SDS011;44006;52.028;4.696;2023-04-06T04:27:13;25.50;;;15.30;;
58208;SDS011;44006;52.028;4.696;2023-04-06T04:29:38;25.00;;;15.70;;
58208;SDS011;44006;52.028;4.696;2023-04-06T04:32:03;23.50;;;15.98;;
58208;SDS011;44006;52.028;4.696;2023-04-06T04:34:29;25.55;;;16.77;;
58208;SDS011;44006;52.028;4.696;2023-04-06T04:36:54;24.35;;;16.58;;
58208;SDS011;44006;52.028;4.696;2023-04-06T04:39:19;25.10;;;16.13;;
58208;SDS011;44006;52.028;4.696;2023-04-06T04:41:45;26.38;;;16.92;;
58208;SDS011;44006;52.028;4.696;2023-04-06T04:44:11;26.58;;;15.95;;
58208;SDS011;44006;52.028;4.696;2023-04-06T04:46:36;28.73;;;16.50;;
58208;SDS011;44006;52.028;4.696;2023-04-06T04:49:02;27.08;;;16.98;;
58208;SDS011;44006;52.028;4.696;2023-04-06T04:51:27;26.42;;;17.02;;
58208;SDS011;44006;52.028;4.696;2023-04-06T04:53:52;28.27;;;17.55;;
58208;SDS011;44006;52.028;4.696;2023-04-06T04:56:18;26.98;;;16.77;;
58208;SDS011;44006;52.028;4.696;2023-04-06T04:58:43;29.80;;;17.70;;
58208;SDS011;44006;52.028;4.696;2023-04-06T05:01:08;26.52;;;16.40;;
58208;SDS011;44006;52.028;4.696;2023-04-06T05:03:33;29.42;;;16.55;;
58208;SDS011;44006;52.028;4.696;2023-04-06T05:05:59;29.00;;;17.33;;
58208;SDS011;44006;52.028;4.696;2023-04-06T05:08:24;28.55;;;16.23;;
58208;SDS011;44006;52.028;4.696;2023-04-06T05:10:49;29.00;;;17.00;;
58208;SDS011;44006;52.028;4.696;2023-04-06T05:13:15;30.92;;;17.42;;
58208;SDS011;44006;52.028;4.696;2023-04-06T05:15:43;28.75;;;17.63;;
58208;SDS011;44006;52.028;4.696;2023-04-06T05:18:08;33.47;;;17.17;;
58208;SDS011;44006;52.028;4.696;2023-04-06T05:20:34;30.48;;;17.75;;
58208;SDS011;44006;52.028;4.696;2023-04-06T05:23:01;27.52;;;16.75;;
58208;SDS011;44006;52.028;4.696;2023-04-06T05:25:27;31.30;;;17.85;;
58208;SDS011;44006;52.028;4.696;2023-04-06T05:27:52;32.65;;;18.02;;
58208;SDS011;44006;52.028;4.696;2023-04-06T05:30:18;27.88;;;18.08;;
58208;SDS011;44006;52.028;4.696;2023-04-06T05:32:43;30.40;;;17.23;;
58208;SDS011;44006;52.028;4.696;2023-04-06T05:35:11;30.27;;;17.95;;
58208;SDS011;44006;52.028;4.696;2023-04-06T05:37:37;29.27;;;17.60;;
58208;SDS011;44006;52.028;4.696;2023-04-06T05:40:02;28.02;;;18.33;;
58208;SDS011;44006;52.028;4.696;2023-04-06T05:42:28;28.02;;;17.65;;
58208;SDS011;44006;52.028;4.696;2023-04-06T05:45:01;27.42;;;16.83;;
58208;SDS011;44006;52.028;4.696;2023-04-06T05:47:28;29.48;;;17.63;;
58208;SDS011;44006;52.028;4.696;2023-04-06T05:49:54;29.45;;;18.02;;
58208;SDS011;44006;52.028;4.696;2023-04-06T05:52:19;31.70;;;18.13;;
58208;SDS011;44006;52.028;4.696;2023-04-06T05:54:44;31.42;;;18.88;;
58208;SDS011;44006;52.028;4.696;2023-04-06T05:57:10;32.63;;;18.98;;
58208;SDS011;44006;52.028;4.696;2023-04-06T05:59:35;32.67;;;18.83;;
58208;SDS011;44006;52.028;4.696;2023-04-06T06:04:30;29.30;;;18.77;;
58208;SDS011;44006;52.028;4.696;2023-04-06T06:06:56;31.48;;;18.42;;
58208;SDS011;44006;52.028;4.696;2023-04-06T06:09:22;31.00;;;18.38;;
58208;SDS011;44006;52.028;4.696;2023-04-06T06:11:48;32.50;;;19.38;;
58208;SDS011;44006;52.028;4.696;2023-04-06T06:14:13;31.75;;;18.45;;
58208;SDS011;44006;52.028;4.696;2023-04-06T06:16:39;34.00;;;18.77;;
58208;SDS011;44006;52.028;4.696;2023-04-06T06:19:05;28.33;;;17.33;;
58208;SDS011;44006;52.028;4.696;2023-04-06T06:21:30;36.58;;;19.55;;
58208;SDS011;44006;52.028;4.696;2023-04-06T06:23:56;31.55;;;18.60;;
58208;SDS011;44006;52.028;4.696;2023-04-06T06:26:21;32.88;;;19.67;;
58208;SDS011;44006;52.028;4.696;2023-04-06T06:28:47;31.75;;;18.30;;
58208;SDS011;44006;52.028;4.696;2023-04-06T06:31:12;34.67;;;19.25;;
58208;SDS011;44006;52.028;4.696;2023-04-06T06:33:37;33.83;;;19.20;;
58208;SDS011;44006;52.028;4.696;2023-04-06T06:36:03;32.67;;;18.35;;
58208;SDS011;44006;52.028;4.696;2023-04-06T06:38:30;33.50;;;19.95;;
58208;SDS011;44006;52.028;4.696;2023-04-06T06:40:55;31.98;;;19.67;;
58208;SDS011;44006;52.028;4.696;2023-04-06T06:43:20;35.75;;;19.45;;
58208;SDS011;44006;52.028;4.696;2023-04-06T06:45:45;32.40;;;19.17;;
58208;SDS011;44006;52.028;4.696;2023-04-06T06:48:11;31.35;;;18.85;;
58208;SDS011;44006;52.028;4.696;2023-04-06T06:50:38;36.17;;;20.58;;
58208;SDS011;44006;52.028;4.696;2023-04-06T06:53:03;33.42;;;19.58;;
58208;SDS011;44006;52.028;4.696;2023-04-06T06:55:28;33.17;;;18.73;;
58208;SDS011;44006;52.028;4.696;2023-04-06T06:57:54;31.85;;;18.98;;
58208;SDS011;44006;52.028;4.696;2023-04-06T07:00:19;32.50;;;19.20;;
58208;SDS011;44006;52.028;4.696;2023-04-06T07:02:47;34.97;;;20.92;;
58208;SDS011;44006;52.028;4.696;2023-04-06T07:05:13;35.33;;;20.38;;
58208;SDS011;44006;52.028;4.696;2023-04-06T07:07:38;35.45;;;19.50;;
58208;SDS011;44006;52.028;4.696;2023-04-06T07:10:04;39.13;;;20.17;;
58208;SDS011;44006;52.028;4.696;2023-04-06T07:12:29;39.40;;;21.00;;
58208;SDS011;44006;52.028;4.696;2023-04-06T07:14:55;37.80;;;20.27;;
58208;SDS011;44006;52.028;4.696;2023-04-06T07:17:20;38.08;;;20.23;;
58208;SDS011;44006;52.028;4.696;2023-04-06T07:19:46;37.10;;;21.65;;
58208;SDS011;44006;52.028;4.696;2023-04-06T07:22:11;35.03;;;20.85;;
58208;SDS011;44006;52.028;4.696;2023-04-06T07:24:37;38.35;;;21.48;;
58208;SDS011;44006;52.028;4.696;2023-04-06T07:27:02;34.78;;;20.27;;
58208;SDS011;44006;52.028;4.696;2023-04-06T07:29:27;30.75;;;19.42;;
58208;SDS011;44006;52.028;4.696;2023-04-06T07:31:53;38.75;;;21.55;;
58208;SDS011;44006;52.028;4.696;2023-04-06T07:34:18;34.92;;;20.40;;
58208;SDS011;44006;52.028;4.696;2023-04-06T07:36:44;37.25;;;21.33;;
58208;SDS011;44006;52.028;4.696;2023-04-06T07:39:09;36.75;;;21.73;;
58208;SDS011;44006;52.028;4.696;2023-04-06T07:41:35;37.90;;;22.05;;
58208;SDS011;44006;52.028;4.696;2023-04-06T07:44:01;39.10;;;22.35;;
58208;SDS011;44006;52.028;4.696;2023-04-06T07:46:26;37.80;;;23.00;;
58208;SDS011;44006;52.028;4.696;2023-04-06T07:48:51;41.13;;;22.90;;
58208;SDS011;44006;52.028;4.696;2023-04-06T07:51:17;41.90;;;22.92;;
58208;SDS011;44006;52.028;4.696;2023-04-06T07:53:43;36.53;;;23.35;;
58208;SDS011;44006;52.028;4.696;2023-04-06T07:56:09;38.95;;;22.77;;
58208;SDS011;44006;52.028;4.696;2023-04-06T07:58:35;36.30;;;22.15;;
58208;SDS011;44006;52.028;4.696;2023-04-06T08:01:01;43.90;;;23.55;;
58208;SDS011;44006;52.028;4.696;2023-04-06T08:03:26;40.95;;;22.27;;
58208;SDS011;44006;52.028;4.696;2023-04-06T08:05:52;38.75;;;21.95;;
58208;SDS011;44006;52.028;4.696;2023-04-06T08:08:17;37.70;;;23.90;;
58208;SDS011;44006;52.028;4.696;2023-04-06T08:10:43;37.60;;;22.70;;
58208;SDS011;44006;52.028;4.696;2023-04-06T08:13:08;37.53;;;22.98;;
58208;SDS011;44006;52.028;4.696;2023-04-06T08:15:34;36.45;;;23.80;;
58208;SDS011;44006;52.028;4.696;2023-04-06T08:18:00;39.55;;;23.33;;
58208;SDS011;44006;52.028;4.696;2023-04-06T08:20:25;37.30;;;22.02;;
58208;SDS011;44006;52.028;4.696;2023-04-06T08:22:51;39.15;;;23.08;;
58208;SDS011;44006;52.028;4.696;2023-04-06T08:25:16;41.50;;;23.77;;
58208;SDS011;44006;52.028;4.696;2023-04-06T08:27:41;41.30;;;24.42;;
58208;SDS011;44006;52.028;4.696;2023-04-06T08:30:07;37.53;;;23.05;;
58208;SDS011;44006;52.028;4.696;2023-04-06T08:32:32;36.70;;;22.95;;
58208;SDS011;44006;52.028;4.696;2023-04-06T08:34:57;36.97;;;22.88;;
58208;SDS011;44006;52.028;4.696;2023-04-06T08:37:22;37.15;;;23.02;;
58208;SDS011;44006;52.028;4.696;2023-04-06T08:39:48;41.10;;;25.17;;
58208;SDS011;44006;52.028;4.696;2023-04-06T08:42:16;42.35;;;23.58;;
58208;SDS011;44006;52.028;4.696;2023-04-06T08:44:43;41.15;;;25.00;;
58208;SDS011;44006;52.028;4.696;2023-04-06T08:47:09;41.45;;;25.30;;
58208;SDS011;44006;52.028;4.696;2023-04-06T08:49:34;43.92;;;24.90;;
58208;SDS011;44006;52.028;4.696;2023-04-06T08:52:02;47.80;;;24.83;;
58208;SDS011;44006;52.028;4.696;2023-04-06T08:54:27;43.60;;;24.15;;
58208;SDS011;44006;52.028;4.696;2023-04-06T08:56:52;42.33;;;24.52;;
58208;SDS011;44006;52.028;4.696;2023-04-06T08:59:18;44.20;;;24.50;;
58208;SDS011;44006;52.028;4.696;2023-04-06T09:01:43;49.28;;;25.27;;
58208;SDS011;44006;52.028;4.696;2023-04-06T09:04:10;46.38;;;25.23;;
58208;SDS011;44006;52.028;4.696;2023-04-06T09:06:36;39.92;;;24.02;;
58208;SDS011;44006;52.028;4.696;2023-04-06T09:09:02;34.03;;;20.85;;
58208;SDS011;44006;52.028;4.696;2023-04-06T09:11:27;29.08;;;15.82;;
58208;SDS011;44006;52.028;4.696;2023-04-06T09:13:53;28.25;;;15.80;;
58208;SDS011;44006;52.028;4.696;2023-04-06T09:16:19;28.80;;;16.00;;
58208;SDS011;44006;52.028;4.696;2023-04-06T09:18:45;28.55;;;16.38;;
58208;SDS011;44006;52.028;4.696;2023-04-06T09:21:11;29.63;;;15.45;;
58208;SDS011;44006;52.028;4.696;2023-04-06T09:23:36;26.85;;;14.77;;
58208;SDS011;44006;52.028;4.696;2023-04-06T09:31:31;23.17;;;13.00;;
58208;SDS011;44006;52.028;4.696;2023-04-06T09:33:59;22.20;;;13.00;;
58208;SDS011;44006;52.028;4.696;2023-04-06T09:36:36;22.48;;;12.43;;
58208;SDS011;44006;52.028;4.696;2023-04-06T09:39:05;17.55;;;10.77;;
58208;SDS011;44006;52.028;4.696;2023-04-06T09:44:04;16.58;;;9.88;;
58208;SDS011;44006;52.028;4.696;2023-04-06T09:46:33;16.70;;;9.88;;
58208;SDS011;44006;52.028;4.696;2023-04-06T09:49:02;16.00;;;9.48;;
58208;SDS011;44006;52.028;4.696;2023-04-06T09:51:30;15.27;;;9.52;;
58208;SDS011;44006;52.028;4.696;2023-04-06T09:53:55;16.58;;;10.15;;
58208;SDS011;44006;52.028;4.696;2023-04-06T09:56:26;16.25;;;9.95;;
58208;SDS011;44006;52.028;4.696;2023-04-06T09:58:53;16.08;;;9.80;;
58208;SDS011;44006;52.028;4.696;2023-04-06T10:01:21;14.73;;;9.40;;
58208;SDS011;44006;52.028;4.696;2023-04-06T10:06:33;17.88;;;10.30;;
58208;SDS011;44006;52.028;4.696;2023-04-06T10:09:01;15.70;;;9.80;;
58208;SDS011;44006;52.028;4.696;2023-04-06T10:11:27;15.43;;;9.13;;
58208;SDS011;44006;52.028;4.696;2023-04-06T10:13:53;15.13;;;9.48;;
58208;SDS011;44006;52.028;4.696;2023-04-06T10:16:19;13.23;;;9.18;;
58208;SDS011;44006;52.028;4.696;2023-04-06T10:18:46;13.98;;;9.20;;
58208;SDS011;44006;52.028;4.696;2023-04-06T10:21:16;13.75;;;9.45;;
58208;SDS011;44006;52.028;4.696;2023-04-06T10:23:45;12.85;;;9.45;;
58208;SDS011;44006;52.028;4.696;2023-04-06T10:26:13;15.15;;;9.43;;
58208;SDS011;44006;52.028;4.696;2023-04-06T10:28:40;15.02;;;9.93;;
58208;SDS011;44006;52.028;4.696;2023-04-06T10:31:06;14.93;;;9.55;;
58208;SDS011;44006;52.028;4.696;2023-04-06T10:33:31;15.90;;;9.93;;
58208;SDS011;44006;52.028;4.696;2023-04-06T10:35:57;18.30;;;10.50;;
58208;SDS011;44006;52.028;4.696;2023-04-06T10:38:35;15.98;;;10.43;;
58208;SDS011;44006;52.028;4.696;2023-04-06T10:41:04;14.15;;;9.75;;
58208;SDS011;44006;52.028;4.696;2023-04-06T10:43:33;16.15;;;10.30;;
58208;SDS011;44006;52.028;4.696;2023-04-06T10:46:00;17.02;;;10.70;;
58208;SDS011;44006;52.028;4.696;2023-04-06T10:48:47;14.77;;;10.02;;
58208;SDS011;44006;52.028;4.696;2023-04-06T10:51:12;18.23;;;10.23;;
58208;SDS011;44006;52.028;4.696;2023-04-06T10:53:38;16.88;;;10.00;;
58208;SDS011;44006;52.028;4.696;2023-04-06T10:56:04;16.15;;;10.20;;
58208;SDS011;44006;52.028;4.696;2023-04-06T10:58:33;15.80;;;10.02;;
58208;SDS011;44006;52.028;4.696;2023-04-06T11:00:59;16.00;;;10.55;;
58208;SDS011;44006;52.028;4.696;2023-04-06T11:03:25;16.45;;;10.38;;
58208;SDS011;44006;52.028;4.696;2023-04-06T11:05:50;15.52;;;9.88;;
58208;SDS011;44006;52.028;4.696;2023-04-06T11:10:47;17.60;;;10.38;;
58208;SDS011;44006;52.028;4.696;2023-04-06T11:13:14;15.85;;;10.77;;
58208;SDS011;44006;52.028;4.696;2023-04-06T11:15:39;17.50;;;11.35;;
58208;SDS011;44006;52.028;4.696;2023-04-06T11:18:05;16.73;;;10.80;;
58208;SDS011;44006;52.028;4.696;2023-04-06T11:20:30;17.05;;;11.30;;
58208;SDS011;44006;52.028;4.696;2023-04-06T11:22:56;18.65;;;12.13;;
58208;SDS011;44006;52.028;4.696;2023-04-06T11:25:22;16.13;;;11.13;;
58208;SDS011;44006;52.028;4.696;2023-04-06T11:28:07;17.90;;;11.82;;
58208;SDS011;44006;52.028;4.696;2023-04-06T11:30:32;20.00;;;12.77;;
58208;SDS011;44006;52.028;4.696;2023-04-06T11:33:00;19.88;;;12.90;;
58208;SDS011;44006;52.028;4.696;2023-04-06T11:35:26;19.55;;;12.85;;
58208;SDS011;44006;52.028;4.696;2023-04-06T11:37:52;19.88;;;12.73;;
58208;SDS011;44006;52.028;4.696;2023-04-06T11:40:20;20.70;;;12.65;;
58208;SDS011;44006;52.028;4.696;2023-04-06T11:42:51;19.73;;;12.90;;
58208;SDS011;44006;52.028;4.696;2023-04-06T11:45:18;19.23;;;13.55;;
58208;SDS011;44006;52.028;4.696;2023-04-06T11:47:43;20.50;;;13.20;;
58208;SDS011;44006;52.028;4.696;2023-04-06T11:50:09;19.67;;;13.20;;
58208;SDS011;44006;52.028;4.696;2023-04-06T11:52:35;19.10;;;13.23;;
58208;SDS011;44006;52.028;4.696;2023-04-06T11:55:09;17.17;;;11.75;;
58208;SDS011;44006;52.028;4.696;2023-04-06T11:57:34;22.02;;;12.40;;
58208;SDS011;44006;52.028;4.696;2023-04-06T12:00:00;20.13;;;13.57;;
58208;SDS011;44006;52.028;4.696;2023-04-06T12:02:25;18.75;;;12.77;;
58208;SDS011;44006;52.028;4.696;2023-04-06T12:04:52;20.77;;;12.45;;
58208;SDS011;44006;52.028;4.696;2023-04-06T12:07:17;20.77;;;13.05;;
58208;SDS011;44006;52.028;4.696;2023-04-06T12:09:42;18.50;;;11.55;;
58208;SDS011;44006;52.028;4.696;2023-04-06T12:12:08;17.88;;;12.35;;
58208;SDS011;44006;52.028;4.696;2023-04-06T12:14:33;17.65;;;12.25;;
58208;SDS011;44006;52.028;4.696;2023-04-06T12:16:59;18.67;;;12.20;;
58208;SDS011;44006;52.028;4.696;2023-04-06T12:19:25;17.15;;;11.52;;
58208;SDS011;44006;52.028;4.696;2023-04-06T12:21:51;18.58;;;11.77;;
58208;SDS011;44006;52.028;4.696;2023-04-06T12:24:17;16.90;;;11.63;;
58208;SDS011;44006;52.028;4.696;2023-04-06T12:26:42;17.95;;;11.40;;
58208;SDS011;44006;52.028;4.696;2023-04-06T12:29:07;18.45;;;11.68;;
58208;SDS011;44006;52.028;4.696;2023-04-06T12:31:34;16.25;;;11.98;;
58208;SDS011;44006;52.028;4.696;2023-04-06T12:34:00;20.38;;;12.40;;
58208;SDS011;44006;52.028;4.696;2023-04-06T12:36:28;19.95;;;11.25;;
58208;SDS011;44006;52.028;4.696;2023-04-06T12:38:53;18.45;;;12.02;;
58208;SDS011;44006;52.028;4.696;2023-04-06T12:41:20;20.02;;;12.27;;
58208;SDS011;44006;52.028;4.696;2023-04-06T12:43:46;20.10;;;11.93;;
58208;SDS011;44006;52.028;4.696;2023-04-06T12:46:11;17.23;;;11.80;;
58208;SDS011;44006;52.028;4.696;2023-04-06T12:48:37;21.88;;;13.15;;
58208;SDS011;44006;52.028;4.696;2023-04-06T12:51:03;18.23;;;12.85;;
58208;SDS011;44006;52.028;4.696;2023-04-06T12:53:28;20.30;;;14.30;;
58208;SDS011;44006;52.028;4.696;2023-04-06T12:55:54;20.02;;;13.43;;
58208;SDS011;44006;52.028;4.696;2023-04-06T12:58:20;21.45;;;13.38;;
58208;SDS011;44006;52.028;4.696;2023-04-06T13:00:46;23.27;;;13.55;;
58208;SDS011;44006;52.028;4.696;2023-04-06T13:03:12;20.50;;;14.30;;
58208;SDS011;44006;52.028;4.696;2023-04-06T13:05:43;20.05;;;13.60;;
58208;SDS011;44006;52.028;4.696;2023-04-06T13:08:08;23.25;;;14.00;;
58208;SDS011;44006;52.028;4.696;2023-04-06T13:10:34;21.45;;;12.85;;
58208;SDS011;44006;52.028;4.696;2023-04-06T13:12:59;22.20;;;14.38;;
58208;SDS011;44006;52.028;4.696;2023-04-06T13:15:25;20.58;;;13.80;;
58208;SDS011;44006;52.028;4.696;2023-04-06T13:17:50;21.42;;;13.43;;
58208;SDS011;44006;52.028;4.696;2023-04-06T13:20:15;19.33;;;13.45;;
58208;SDS011;44006;52.028;4.696;2023-04-06T13:22:42;19.85;;;13.80;;
58208;SDS011;44006;52.028;4.696;2023-04-06T13:25:07;19.58;;;13.88;;
58208;SDS011;44006;52.028;4.696;2023-04-06T13:27:33;20.90;;;14.30;;
58208;SDS011;44006;52.028;4.696;2023-04-06T13:30:00;21.10;;;14.10;;
58208;SDS011;44006;52.028;4.696;2023-04-06T13:32:26;21.77;;;14.45;;
58208;SDS011;44006;52.028;4.696;2023-04-06T13:34:54;22.30;;;14.38;;
58208;SDS011;44006;52.028;4.696;2023-04-06T13:37:19;21.95;;;14.02;;
58208;SDS011;44006;52.028;4.696;2023-04-06T13:39:44;19.35;;;13.68;;
58208;SDS011;44006;52.028;4.696;2023-04-06T13:42:10;18.27;;;13.25;;
58208;SDS011;44006;52.028;4.696;2023-04-06T13:44:35;18.00;;;12.98;;
58208;SDS011;44006;52.028;4.696;2023-04-06T13:47:00;18.92;;;13.30;;
58208;SDS011;44006;52.028;4.696;2023-04-06T13:49:26;19.92;;;13.82;;
58208;SDS011;44006;52.028;4.696;2023-04-06T13:51:51;18.85;;;13.27;;
58208;SDS011;44006;52.028;4.696;2023-04-06T13:54:16;19.58;;;14.02;;
58208;SDS011;44006;52.028;4.696;2023-04-06T13:56:42;19.20;;;13.65;;
58208;SDS011;44006;52.028;4.696;2023-04-06T13:59:07;21.20;;;14.50;;
58208;SDS011;44006;52.028;4.696;2023-04-06T14:01:32;19.58;;;14.13;;
58208;SDS011;44006;52.028;4.696;2023-04-06T14:03:58;21.15;;;14.75;;
58208;SDS011;44006;52.028;4.696;2023-04-06T14:06:23;19.63;;;13.93;;
58208;SDS011;44006;52.028;4.696;2023-04-06T14:08:48;18.80;;;13.57;;
58208;SDS011;44006;52.028;4.696;2023-04-06T14:11:13;18.88;;;13.55;;
58208;SDS011;44006;52.028;4.696;2023-04-06T14:13:39;19.63;;;13.02;;
58208;SDS011;44006;52.028;4.696;2023-04-06T14:16:05;17.48;;;12.73;;
58208;SDS011;44006;52.028;4.696;2023-04-06T14:18:31;19.60;;;13.65;;
58208;SDS011;44006;52.028;4.696;2023-04-06T14:20:59;18.60;;;13.57;;
58208;SDS011;44006;52.028;4.696;2023-04-06T14:23:25;19.25;;;14.10;;
58208;SDS011;44006;52.028;4.696;2023-04-06T14:25:51;18.55;;;13.95;;
58208;SDS011;44006;52.028;4.696;2023-04-06T14:28:18;20.27;;;14.20;;
58208;SDS011;44006;52.028;4.696;2023-04-06T14:30:44;22.08;;;14.18;;